sensor_id;sensor_type;location;lat;lon;timestamp;pressure;altitude;pressure_sealevel;temperature;humidity
51439;BME280;38816;51.142;-0.974;2022-08-18T00:00:51;100073.88;;;16.71;100.00
51439;BME280;38816;51.142;-0.974;2022-08-18T00:03:16;100078.22;;;16.71;100.00
51439;BME280;38816;51.142;-0.974;2022-08-18T00:05:44;100085.97;;;16.77;100.00
51439;BME280;38816;51.142;-0.974;2022-08-18T00:08:10;100068.72;;;16.68;100.00
51439;BME280;38816;51.142;-0.974;2022-08-18T00:10:35;100074.78;;;16.72;100.00
51439;BME280;38816;51.142;-0.974;2022-08-18T00:13:01;100069.53;;;16.70;100.00
51439;BME280;38816;51.142;-0.974;2022-08-18T00:15:27;100068.72;;;16.68;100.00
51439;BME280;38816;51.142;-0.974;2022-08-18T00:17:52;100045.50;;;16.58;100.00
51439;BME280;38816;51.142;-0.974;2022-08-18T00:20:20;100057.50;;;16.65;100.00
51439;BME280;38816;51.142;-0.974;2022-08-18T00:22:47;100063.59;;;16.62;100.00
51439;BME280;38816;51.142;-0.974;2022-08-18T00:25:14;100065.34;;;16.62;100.00
51439;BME280;38816;51.142;-0.974;2022-08-18T00:27:41;100067.00;;;16.66;100.00
51439;BME280;38816;51.142;-0.974;2022-08-18T00:30:10;100073.09;;;16.66;100.00
51439;BME280;38816;51.142;-0.974;2022-08-18T00:32:39;100069.63;;;16.64;100.00
51439;BME280;38816;51.142;-0.974;2022-08-18T00:35:14;100064.47;;;16.63;100.00
51439;BME280;38816;51.142;-0.974;2022-08-18T00:37:40;100077.41;;;16.64;100.00
51439;BME280;38816;51.142;-0.974;2022-08-18T00:40:08;100064.50;;;16.60;100.00
51439;BME280;38816;51.142;-0.974;2022-08-18T00:42:42;100069.72;;;16.58;100.00
51439;BME280;38816;51.142;-0.974;2022-08-18T00:45:12;100082.56;;;16.66;100.00
51439;BME280;38816;51.142;-0.974;2022-08-18T00:47:38;100082.59;;;16.67;100.00
51439;BME280;38816;51.142;-0.974;2022-08-18T00:50:04;100089.47;;;16.73;100.00
51439;BME280;38816;51.142;-0.974;2022-08-18T00:52:30;100088.59;;;16.74;100.00
51439;BME280;38816;51.142;-0.974;2022-08-18T00:54:56;100090.31;;;16.75;100.00
51439;BME280;38816;51.142;-0.974;2022-08-18T00:57:22;100079.06;;;16.70;100.00
51439;BME280;38816;51.142;-0.974;2022-08-18T00:59:59;100095.47;;;16.78;100.00
51439;BME280;38816;51.142;-0.974;2022-08-18T01:02:40;100085.16;;;16.69;100.00
51439;BME280;38816;51.142;-0.974;2022-08-18T01:07:41;100099.00;;;16.71;100.00
51439;BME280;38816;51.142;-0.974;2022-08-18T01:10:14;100084.25;;;16.70;100.00
51439;BME280;38816;51.142;-0.974;2022-08-18T01:12:46;100086.03;;;16.68;100.00
51439;BME280;38816;51.142;-0.974;2022-08-18T01:15:12;100086.00;;;16.73;100.00
51439;BME280;38816;51.142;-0.974;2022-08-18T01:17:39;100087.72;;;16.70;100.00
51439;BME280;38816;51.142;-0.974;2022-08-18T01:20:31;100090.34;;;16.69;100.00
51439;BME280;38816;51.142;-0.974;2022-08-18T01:23:18;100067.97;;;16.59;100.00
51439;BME280;38816;51.142;-0.974;2022-08-18T01:25:45;100082.53;;;16.70;100.00
51439;BME280;38816;51.142;-0.974;2022-08-18T01:28:27;100082.53;;;16.70;100.00
51439;BME280;38816;51.142;-0.974;2022-08-18T01:30:55;100079.13;;;16.65;100.00
51439;BME280;38816;51.142;-0.974;2022-08-18T01:33:27;100078.28;;;16.65;100.00
51439;BME280;38816;51.142;-0.974;2022-08-18T01:35:57;100079.19;;;16.62;100.00
51439;BME280;38816;51.142;-0.974;2022-08-18T01:38:24;100090.38;;;16.66;100.00
51439;BME280;38816;51.142;-0.974;2022-08-18T01:40:50;100090.31;;;16.70;100.00
51439;BME280;38816;51.142;-0.974;2022-08-18T01:43:17;100085.19;;;16.66;100.00
51439;BME280;38816;51.142;-0.974;2022-08-18T01:45:42;100097.25;;;16.70;100.00
51439;BME280;38816;51.142;-0.974;2022-08-18T01:48:08;100090.34;;;16.72;100.00
51439;BME280;38816;51.142;-0.974;2022-08-18T01:50:35;100095.56;;;16.67;100.00
51439;BME280;38816;51.142;-0.974;2022-08-18T01:53:02;100092.06;;;16.70;100.00
51439;BME280;38816;51.142;-0.974;2022-08-18T01:55:33;100079.19;;;16.59;100.00
51439;BME280;38816;51.142;-0.974;2022-08-18T01:57:59;100101.56;;;16.69;100.00
51439;BME280;38816;51.142;-0.974;2022-08-18T02:00:26;100093.91;;;16.62;100.00
51439;BME280;38816;51.142;-0.974;2022-08-18T02:02:51;100086.13;;;16.59;100.00
51439;BME280;38816;51.142;-0.974;2022-08-18T02:05:28;100094.69;;;16.67;100.00
51439;BME280;38816;51.142;-0.974;2022-08-18T02:07:55;100092.97;;;16.67;100.00
51439;BME280;38816;51.142;-0.974;2022-08-18T02:10:21;100090.34;;;16.69;100.00
51439;BME280;38816;51.142;-0.974;2022-08-18T02:12:46;100086.00;;;16.69;100.00
51439;BME280;38816;51.142;-0.974;2022-08-18T02:15:12;100082.59;;;16.67;100.00
51439;BME280;38816;51.142;-0.974;2022-08-18T02:17:39;100090.34;;;16.72;100.00
51439;BME280;38816;51.142;-0.974;2022-08-18T02:20:07;100086.84;;;16.70;100.00
51439;BME280;38816;51.142;-0.974;2022-08-18T02:22:33;100090.34;;;16.72;100.00
51439;BME280;38816;51.142;-0.974;2022-08-18T02:24:59;100064.47;;;16.61;100.00
51439;BME280;38816;51.142;-0.974;2022-08-18T02:27:26;100076.47;;;16.73;100.00
51439;BME280;38816;51.142;-0.974;2022-08-18T02:29:52;100074.78;;;16.72;100.00
51439;BME280;38816;51.142;-0.974;2022-08-18T02:32:18;100067.84;;;16.71;100.00
51439;BME280;38816;51.142;-0.974;2022-08-18T02:34:43;100061.00;;;16.62;100.00
51439;BME280;38816;51.142;-0.974;2022-08-18T02:37:09;100074.78;;;16.66;100.00
51439;BME280;38816;51.142;-0.974;2022-08-18T02:39:36;100067.91;;;16.63;100.00
51439;BME280;38816;51.142;-0.974;2022-08-18T02:42:04;100073.94;;;16.65;100.00
51439;BME280;38816;51.142;-0.974;2022-08-18T02:44:29;100062.75;;;16.62;100.00
51439;BME280;38816;51.142;-0.974;2022-08-18T02:46:56;100079.06;;;16.71;100.00
51439;BME280;38816;51.142;-0.974;2022-08-18T02:49:22;100066.22;;;16.62;100.00
51439;BME280;38816;51.142;-0.974;2022-08-18T02:51:48;100072.19;;;16.67;100.00
51439;BME280;38816;51.142;-0.974;2022-08-18T02:54:16;100067.88;;;16.65;100.00
51439;BME280;38816;51.142;-0.974;2022-08-18T02:56:42;100079.09;;;16.68;100.00
51439;BME280;38816;51.142;-0.974;2022-08-18T02:59:14;100083.38;;;16.74;100.00
51439;BME280;38816;51.142;-0.974;2022-08-18T03:01:42;100064.38;;;16.69;100.00
51439;BME280;38816;51.142;-0.974;2022-08-18T03:04:12;100070.41;;;16.74;100.00
51439;BME280;38816;51.142;-0.974;2022-08-18T03:06:39;100067.81;;;16.74;100.00
51439;BME280;38816;51.142;-0.974;2022-08-18T03:09:07;100078.19;;;16.77;100.00
51439;BME280;38816;51.142;-0.974;2022-08-18T03:11:33;100071.28;;;16.76;100.00
51439;BME280;38816;51.142;-0.974;2022-08-18T03:13:59;100081.66;;;16.76;100.00
51439;BME280;38816;51.142;-0.974;2022-08-18T03:16:25;100070.47;;;16.68;100.00
51439;BME280;38816;51.142;-0.974;2022-08-18T03:18:52;100074.75;;;16.75;100.00
51439;BME280;38816;51.142;-0.974;2022-08-18T03:21:22;100072.13;;;16.77;100.00
51439;BME280;38816;51.142;-0.974;2022-08-18T03:23:48;100063.53;;;16.68;100.00
51439;BME280;38816;51.142;-0.974;2022-08-18T03:26:16;100057.47;;;16.68;100.00
51439;BME280;38816;51.142;-0.974;2022-08-18T03:28:45;100066.09;;;16.73;100.00
51439;BME280;38816;51.142;-0.974;2022-08-18T03:31:12;100054.00;;;16.69;100.00
51439;BME280;38816;51.142;-0.974;2022-08-18T03:33:40;100057.50;;;16.66;100.00
51439;BME280;38816;51.142;-0.974;2022-08-18T03:36:12;100065.25;;;16.71;100.00
51439;BME280;38816;51.142;-0.974;2022-08-18T03:38:39;100066.16;;;16.67;100.00
51439;BME280;38816;51.142;-0.974;2022-08-18T03:41:06;100061.84;;;16.64;100.00
51439;BME280;38816;51.142;-0.974;2022-08-18T03:43:33;100055.78;;;16.64;100.00
51439;BME280;38816;51.142;-0.974;2022-08-18T03:46:05;100054.91;;;16.66;100.00
51439;BME280;38816;51.142;-0.974;2022-08-18T03:48:31;100052.28;;;16.68;100.00
51439;BME280;38816;51.142;-0.974;2022-08-18T03:51:12;100060.91;;;16.73;100.00
51439;BME280;38816;51.142;-0.974;2022-08-18T03:53:39;100060.91;;;16.73;100.00
51439;BME280;38816;51.142;-0.974;2022-08-18T03:56:09;100060.91;;;16.73;100.00
51439;BME280;38816;51.142;-0.974;2022-08-18T03:59:14;100043.66;;;16.66;100.00
51439;BME280;38816;51.142;-0.974;2022-08-18T04:01:37;100036.75;;;16.65;100.00
51439;BME280;38816;51.142;-0.974;2022-08-18T04:04:06;100049.66;;;16.73;100.00
51439;BME280;38816;51.142;-0.974;2022-08-18T04:06:40;100057.44;;;16.74;100.00
51439;BME280;38816;51.142;-0.974;2022-08-18T04:09:09;100045.34;;;16.68;100.00
51439;BME280;38816;51.142;-0.974;2022-08-18T04:11:36;100060.06;;;16.69;100.00
51439;BME280;38816;51.142;-0.974;2022-08-18T04:14:04;100048.78;;;16.70;100.00
51439;BME280;38816;51.142;-0.974;2022-08-18T04:16:31;100057.38;;;16.79;100.00
51439;BME280;38816;51.142;-0.974;2022-08-18T04:18:57;100055.69;;;16.76;100.00
51439;BME280;38816;51.142;-0.974;2022-08-18T04:21:26;100039.38;;;16.63;100.00
51439;BME280;38816;51.142;-0.974;2022-08-18T04:23:52;100066.97;;;16.75;100.00
51439;BME280;38816;51.142;-0.974;2022-08-18T04:26:18;100068.69;;;16.73;100.00
51439;BME280;38816;51.142;-0.974;2022-08-18T04:28:44;100060.91;;;16.70;100.00
51439;BME280;38816;51.142;-0.974;2022-08-18T04:31:12;100073.84;;;16.78;100.00
51439;BME280;38816;51.142;-0.974;2022-08-18T04:33:39;100070.34;;;16.79;100.00
51439;BME280;38816;51.142;-0.974;2022-08-18T04:36:11;100074.69;;;16.80;100.00
51439;BME280;38816;51.142;-0.974;2022-08-18T04:38:37;100078.16;;;16.80;100.00
51439;BME280;38816;51.142;-0.974;2022-08-18T04:41:04;100078.97;;;16.82;100.00
51439;BME280;38816;51.142;-0.974;2022-08-18T04:43:30;100078.16;;;16.80;100.00
51439;BME280;38816;51.142;-0.974;2022-08-18T04:45:55;100082.44;;;16.83;100.00
51439;BME280;38816;51.142;-0.974;2022-08-18T04:48:28;100074.66;;;16.81;100.00
51439;BME280;38816;51.142;-0.974;2022-08-18T04:51:19;100077.22;;;16.86;100.00
51439;BME280;38816;51.142;-0.974;2022-08-18T04:53:44;100078.09;;;16.85;100.00
51439;BME280;38816;51.142;-0.974;2022-08-18T04:56:23;100084.97;;;16.87;100.00
51439;BME280;38816;51.142;-0.974;2022-08-18T04:58:57;100074.69;;;16.78;100.00
51439;BME280;38816;51.142;-0.974;2022-08-18T05:01:26;100079.97;;;16.72;100.00
51439;BME280;38816;51.142;-0.974;2022-08-18T05:03:53;100080.75;;;16.79;100.00
51439;BME280;38816;51.142;-0.974;2022-08-18T05:06:21;100069.50;;;16.80;100.00
51439;BME280;38816;51.142;-0.974;2022-08-18T05:08:56;100079.84;;;16.83;100.00
51439;BME280;38816;51.142;-0.974;2022-08-18T05:11:24;100077.25;;;16.81;100.00
51439;BME280;38816;51.142;-0.974;2022-08-18T05:13:50;100072.94;;;16.79;100.00
51439;BME280;38816;51.142;-0.974;2022-08-18T05:16:18;100074.66;;;16.84;100.00
51439;BME280;38816;51.142;-0.974;2022-08-18T05:18:44;100069.44;;;16.84;100.00
51439;BME280;38816;51.142;-0.974;2022-08-18T05:21:10;100074.63;;;16.83;100.00
51439;BME280;38816;51.142;-0.974;2022-08-18T05:23:44;100074.69;;;16.78;100.00
51439;BME280;38816;51.142;-0.974;2022-08-18T05:26:11;100065.22;;;16.76;100.00
51439;BME280;38816;51.142;-0.974;2022-08-18T05:28:38;100085.03;;;16.84;100.00
51439;BME280;38816;51.142;-0.974;2022-08-18T05:31:29;100084.13;;;16.85;100.00
51439;BME280;38816;51.142;-0.974;2022-08-18T05:33:57;100086.75;;;16.82;100.00
51439;BME280;38816;51.142;-0.974;2022-08-18T05:39:07;100078.09;;;16.83;100.00
51439;BME280;38816;51.142;-0.974;2022-08-18T05:41:44;100062.56;;;16.80;100.00
51439;BME280;38816;51.142;-0.974;2022-08-18T05:44:19;100075.44;;;16.88;100.00
51439;BME280;38816;51.142;-0.974;2022-08-18T05:46:50;100089.25;;;16.91;100.00
51439;BME280;38816;51.142;-0.974;2022-08-18T05:49:17;100072.84;;;16.89;100.00
51439;BME280;38816;51.142;-0.974;2022-08-18T05:51:53;100078.72;;;17.04;100.00
51439;BME280;38816;51.142;-0.974;2022-08-18T05:54:20;100062.34;;;16.99;100.00
51439;BME280;38816;51.142;-0.974;2022-08-18T05:57:17;100072.63;;;17.08;100.00
51439;BME280;38816;51.142;-0.974;2022-08-18T05:59:44;100076.00;;;17.13;100.00
51439;BME280;38816;51.142;-0.974;2022-08-18T06:05:27;100067.31;;;17.14;100.00
51439;BME280;38816;51.142;-0.974;2022-08-18T06:07:59;100081.94;;;17.23;100.00
51439;BME280;38816;51.142;-0.974;2022-08-18T06:10:26;100079.31;;;17.26;100.00
51439;BME280;38816;51.142;-0.974;2022-08-18T06:12:57;100081.06;;;17.22;100.00
51439;BME280;38816;51.142;-0.974;2022-08-18T06:26:36;100062.81;;;17.30;100.00
51439;BME280;38816;51.142;-0.974;2022-08-18T06:37:32;100075.72;;;17.34;100.00
51439;BME280;38816;51.142;-0.974;2022-08-18T06:39:59;100074.03;;;17.30;100.00
51439;BME280;38816;51.142;-0.974;2022-08-18T06:42:26;100074.03;;;17.30;100.00
51439;BME280;38816;51.142;-0.974;2022-08-18T06:45:05;100071.47;;;17.27;100.00
51439;BME280;38816;51.142;-0.974;2022-08-18T06:50:25;100067.06;;;17.32;100.00
51439;BME280;38816;51.142;-0.974;2022-08-18T06:52:55;100068.66;;;17.42;100.00
51439;BME280;38816;51.142;-0.974;2022-08-18T06:55:35;100069.41;;;17.51;100.00
51439;BME280;38816;51.142;-0.974;2022-08-18T06:58:28;100085.63;;;17.68;100.00
51439;BME280;38816;51.142;-0.974;2022-08-18T07:00:59;100081.94;;;17.84;100.00
51439;BME280;38816;51.142;-0.974;2022-08-18T07:03:42;100073.81;;;18.04;100.00
51439;BME280;38816;51.142;-0.974;2022-08-18T07:06:23;100071.78;;;18.21;100.00
51439;BME280;38816;51.142;-0.974;2022-08-18T07:08:54;100068.28;;;18.24;100.00
51439;BME280;38816;51.142;-0.974;2022-08-18T07:11:31;100067.38;;;18.25;100.00
51439;BME280;38816;51.142;-0.974;2022-08-18T07:14:19;100080.81;;;18.48;100.00
51439;BME280;38816;51.142;-0.974;2022-08-18T07:16:45;100078.75;;;18.69;100.00
51439;BME280;38816;51.142;-0.974;2022-08-18T07:19:16;100067.22;;;18.81;100.00
51439;BME280;38816;51.142;-0.974;2022-08-18T07:21:46;100075.50;;;19.00;100.00
51439;BME280;38816;51.142;-0.974;2022-08-18T07:24:27;100066.34;;;19.22;100.00
51439;BME280;38816;51.142;-0.974;2022-08-18T07:27:05;100077.13;;;19.45;100.00
51439;BME280;38816;51.142;-0.974;2022-08-18T07:29:34;100059.91;;;19.38;100.00
51439;BME280;38816;51.142;-0.974;2022-08-18T07:32:17;100088.28;;;19.52;100.00
51439;BME280;38816;51.142;-0.974;2022-08-18T07:34:46;100092.94;;;19.38;100.00
51439;BME280;38816;51.142;-0.974;2022-08-18T07:37:18;100087.03;;;19.30;100.00
51439;BME280;38816;51.142;-0.974;2022-08-18T07:39:58;100083.47;;;19.34;100.00
51439;BME280;38816;51.142;-0.974;2022-08-18T07:45:24;100076.94;;;19.55;100.00
51439;BME280;38816;51.142;-0.974;2022-08-18T07:50:21;100085.78;;;19.86;100.00
51439;BME280;38816;51.142;-0.974;2022-08-18T07:53:12;100081.75;;;20.07;100.00
51439;BME280;38816;51.142;-0.974;2022-08-18T07:55:40;100085.66;;;20.25;100.00
51439;BME280;38816;51.142;-0.974;2022-08-18T07:58:33;100100.09;;;20.40;100.00
51439;BME280;38816;51.142;-0.974;2022-08-18T08:01:07;100091.53;;;20.33;100.00
51439;BME280;38816;51.142;-0.974;2022-08-18T08:03:51;100101.41;;;20.22;100.00
51439;BME280;38816;51.142;-0.974;2022-08-18T08:06:25;100102.75;;;20.03;100.00
51439;BME280;38816;51.142;-0.974;2022-08-18T08:11:55;100112.22;;;19.71;99.18
51439;BME280;38816;51.142;-0.974;2022-08-18T08:14:40;100106.47;;;19.55;100.00
51439;BME280;38816;51.142;-0.974;2022-08-18T08:17:16;100101.25;;;19.55;100.00
51439;BME280;38816;51.142;-0.974;2022-08-18T08:22:50;100106.47;;;19.55;100.00
51439;BME280;38816;51.142;-0.974;2022-08-18T08:30:47;100100.97;;;19.27;100.00
51439;BME280;38816;51.142;-0.974;2022-08-18T08:33:36;100099.25;;;19.28;100.00
51439;BME280;38816;51.142;-0.974;2022-08-18T08:36:08;100103.41;;;19.36;100.00
51439;BME280;38816;51.142;-0.974;2022-08-18T08:38:46;100108.44;;;19.45;100.00
51439;BME280;38816;51.142;-0.974;2022-08-18T08:47:07;100105.97;;;19.78;98.13
51439;BME280;38816;51.142;-0.974;2022-08-18T08:52:23;100093.22;;;20.02;93.17
51439;BME280;38816;51.142;-0.974;2022-08-18T08:54:59;100097.41;;;20.09;92.53
51439;BME280;38816;51.142;-0.974;2022-08-18T08:57:33;100100.41;;;20.26;92.83
51439;BME280;38816;51.142;-0.974;2022-08-18T09:00:03;100105.97;;;20.50;90.13
51439;BME280;38816;51.142;-0.974;2022-08-18T09:06:17;100101.63;;;20.47;88.40
51439;BME280;38816;51.142;-0.974;2022-08-18T09:12:07;100098.94;;;20.52;88.51
51439;BME280;38816;51.142;-0.974;2022-08-18T09:19:53;100103.34;;;20.50;86.93
51439;BME280;38816;51.142;-0.974;2022-08-18T09:24:55;100109.88;;;20.30;92.47
51439;BME280;38816;51.142;-0.974;2022-08-18T09:27:42;100090.25;;;20.15;92.36
51439;BME280;38816;51.142;-0.974;2022-08-18T09:38:52;100082.72;;;20.71;84.56
51439;BME280;38816;51.142;-0.974;2022-08-18T09:41:59;100097.38;;;20.76;83.44
51439;BME280;38816;51.142;-0.974;2022-08-18T09:44:56;100097.03;;;21.19;85.77
51439;BME280;38816;51.142;-0.974;2022-08-18T09:49:53;100100.72;;;21.71;81.58
51439;BME280;38816;51.142;-0.974;2022-08-18T09:54:57;100098.72;;;22.32;80.54
51439;BME280;38816;51.142;-0.974;2022-08-18T10:00:25;100089.47;;;22.72;77.41
51439;BME280;38816;51.142;-0.974;2022-08-18T10:07:51;100091.03;;;22.53;72.12
51439;BME280;38816;51.142;-0.974;2022-08-18T10:16:03;100081.25;;;22.81;73.28
51439;BME280;38816;51.142;-0.974;2022-08-18T10:18:47;100084.91;;;23.02;74.83
51439;BME280;38816;51.142;-0.974;2022-08-18T10:21:19;100072.69;;;23.24;71.55
51439;BME280;38816;51.142;-0.974;2022-08-18T10:29:12;100072.19;;;22.66;70.10
51439;BME280;38816;51.142;-0.974;2022-08-18T10:37:43;100075.13;;;22.06;72.06
51439;BME280;38816;51.142;-0.974;2022-08-18T10:40:17;100064.13;;;21.96;72.75
51439;BME280;38816;51.142;-0.974;2022-08-18T10:48:07;100048.69;;;22.88;74.61
51439;BME280;38816;51.142;-0.974;2022-08-18T10:50:39;100052.13;;;23.36;71.59
51439;BME280;38816;51.142;-0.974;2022-08-18T10:53:18;100048.72;;;23.34;68.35
51439;BME280;38816;51.142;-0.974;2022-08-18T10:56:08;100037.84;;;23.21;66.68
51439;BME280;38816;51.142;-0.974;2022-08-18T10:58:59;100052.38;;;23.30;69.32
51439;BME280;38816;51.142;-0.974;2022-08-18T11:01:43;100045.50;;;23.04;65.47
51439;BME280;38816;51.142;-0.974;2022-08-18T11:04:35;100036.97;;;22.98;64.80
51439;BME280;38816;51.142;-0.974;2022-08-18T11:07:05;100032.72;;;23.18;64.16
51439;BME280;38816;51.142;-0.974;2022-08-18T11:09:33;100037.19;;;23.60;63.69
51439;BME280;38816;51.142;-0.974;2022-08-18T11:12:01;100035.56;;;23.79;63.69
51439;BME280;38816;51.142;-0.974;2022-08-18T11:19:49;100036.75;;;23.48;60.86
51439;BME280;38816;51.142;-0.974;2022-08-18T11:22:50;100043.81;;;23.90;61.47
51439;BME280;38816;51.142;-0.974;2022-08-18T11:25:21;100029.19;;;23.85;62.17
51439;BME280;38816;51.142;-0.974;2022-08-18T11:27:48;100027.81;;;23.96;62.73
51439;BME280;38816;51.142;-0.974;2022-08-18T11:30:14;100023.38;;;24.19;65.32
51439;BME280;38816;51.142;-0.974;2022-08-18T11:32:40;100028.16;;;24.50;62.49
51439;BME280;38816;51.142;-0.974;2022-08-18T11:40:21;100029.31;;;24.63;60.52
51439;BME280;38816;51.142;-0.974;2022-08-18T11:42:54;100026.38;;;24.50;59.93
51439;BME280;38816;51.142;-0.974;2022-08-18T11:45:24;100035.72;;;24.37;59.83
51439;BME280;38816;51.142;-0.974;2022-08-18T11:48:31;100034.13;;;24.33;59.98
51439;BME280;38816;51.142;-0.974;2022-08-18T11:51:00;100025.50;;;23.89;61.01
51439;BME280;38816;51.142;-0.974;2022-08-18T12:01:40;100026.16;;;23.30;63.53
51439;BME280;38816;51.142;-0.974;2022-08-18T12:09:21;100026.63;;;23.39;63.43
51439;BME280;38816;51.142;-0.974;2022-08-18T12:11:51;100035.06;;;23.47;64.24
51439;BME280;38816;51.142;-0.974;2022-08-18T12:14:20;100017.66;;;23.45;62.16
51439;BME280;38816;51.142;-0.974;2022-08-18T12:16:46;100019.72;;;23.59;61.45
51439;BME280;38816;51.142;-0.974;2022-08-18T12:19:13;100026.75;;;23.80;64.71
51439;BME280;38816;51.142;-0.974;2022-08-18T12:21:42;100020.25;;;23.89;61.49
51439;BME280;38816;51.142;-0.974;2022-08-18T12:24:16;100032.69;;;24.06;62.19
51439;BME280;38816;51.142;-0.974;2022-08-18T12:26:44;100015.03;;;24.09;60.26
51439;BME280;38816;51.142;-0.974;2022-08-18T12:29:10;100032.19;;;24.38;60.37
51439;BME280;38816;51.142;-0.974;2022-08-18T12:31:35;100028.59;;;24.60;61.12
51439;BME280;38816;51.142;-0.974;2022-08-18T12:34:01;100021.06;;;24.90;61.37
51439;BME280;38816;51.142;-0.974;2022-08-18T12:36:27;100013.00;;;25.32;56.92
51439;BME280;38816;51.142;-0.974;2022-08-18T12:38:53;100004.56;;;25.79;56.66
51439;BME280;38816;51.142;-0.974;2022-08-18T12:41:19;100006.25;;;25.97;53.63
51439;BME280;38816;51.142;-0.974;2022-08-18T12:43:45;100001.78;;;25.82;57.66
51439;BME280;38816;51.142;-0.974;2022-08-18T12:46:12;100007.09;;;25.98;54.62
51439;BME280;38816;51.142;-0.974;2022-08-18T12:48:37;99983.19;;;26.36;52.49
51439;BME280;38816;51.142;-0.974;2022-08-18T12:51:03;99992.44;;;26.27;52.35
51439;BME280;38816;51.142;-0.974;2022-08-18T12:53:29;99996.94;;;25.73;53.65
51439;BME280;38816;51.142;-0.974;2022-08-18T12:55:55;100002.19;;;25.00;55.46
51439;BME280;38816;51.142;-0.974;2022-08-18T12:58:20;99994.59;;;24.36;57.46
51439;BME280;38816;51.142;-0.974;2022-08-18T13:00:46;100002.22;;;24.42;59.09
51439;BME280;38816;51.142;-0.974;2022-08-18T13:03:12;99999.06;;;24.92;59.85
51439;BME280;38816;51.142;-0.974;2022-08-18T13:05:38;99984.97;;;25.12;56.37
51439;BME280;38816;51.142;-0.974;2022-08-18T13:08:05;99992.66;;;25.17;55.02
51439;BME280;38816;51.142;-0.974;2022-08-18T13:10:34;99987.06;;;24.87;57.89
51439;BME280;38816;51.142;-0.974;2022-08-18T13:12:59;99983.50;;;24.88;57.29
51439;BME280;38816;51.142;-0.974;2022-08-18T13:15:25;99981.84;;;24.47;56.56
51439;BME280;38816;51.142;-0.974;2022-08-18T13:17:51;99996.50;;;24.12;58.41
51439;BME280;38816;51.142;-0.974;2022-08-18T13:20:16;99982.16;;;24.00;61.20
51439;BME280;38816;51.142;-0.974;2022-08-18T13:22:42;99980.41;;;24.40;60.88
51439;BME280;38816;51.142;-0.974;2022-08-18T13:25:11;99984.00;;;24.77;55.41
51439;BME280;38816;51.142;-0.974;2022-08-18T13:27:37;99972.31;;;25.01;55.01
51439;BME280;38816;51.142;-0.974;2022-08-18T13:30:10;99973.53;;;25.32;55.25
51439;BME280;38816;51.142;-0.974;2022-08-18T13:32:35;99968.97;;;25.70;56.05
51439;BME280;38816;51.142;-0.974;2022-08-18T13:35:02;99962.09;;;25.68;54.83
51439;BME280;38816;51.142;-0.974;2022-08-18T13:37:28;99957.78;;;25.84;55.11
51439;BME280;38816;51.142;-0.974;2022-08-18T13:39:54;99968.63;;;25.95;52.24
51439;BME280;38816;51.142;-0.974;2022-08-18T13:42:20;99962.16;;;26.18;55.51
51439;BME280;38816;51.142;-0.974;2022-08-18T13:44:45;99955.81;;;26.38;55.07
51439;BME280;38816;51.142;-0.974;2022-08-18T13:47:11;99955.97;;;26.53;54.72
51439;BME280;38816;51.142;-0.974;2022-08-18T13:49:36;99962.50;;;26.28;53.62
51439;BME280;38816;51.142;-0.974;2022-08-18T13:52:02;99957.47;;;25.90;55.98
51439;BME280;38816;51.142;-0.974;2022-08-18T13:54:31;99969.31;;;26.16;52.38
51439;BME280;38816;51.142;-0.974;2022-08-18T13:56:58;99975.25;;;26.02;51.68
51439;BME280;38816;51.142;-0.974;2022-08-18T13:59:24;99973.75;;;25.81;50.48
51439;BME280;38816;51.142;-0.974;2022-08-18T14:01:57;99979.25;;;25.58;52.26
51439;BME280;38816;51.142;-0.974;2022-08-18T14:04:23;99967.41;;;25.32;51.44
51439;BME280;38816;51.142;-0.974;2022-08-18T14:06:52;99981.78;;;25.06;51.45
51439;BME280;38816;51.142;-0.974;2022-08-18T14:09:18;99978.25;;;24.88;52.57
51439;BME280;38816;51.142;-0.974;2022-08-18T14:11:44;99963.06;;;25.31;49.96
51439;BME280;38816;51.142;-0.974;2022-08-18T14:14:12;99963.97;;;26.00;48.88
51439;BME280;38816;51.142;-0.974;2022-08-18T14:16:38;99960.72;;;26.29;46.73
51439;BME280;38816;51.142;-0.974;2022-08-18T14:19:03;99964.66;;;26.04;46.29
51439;BME280;38816;51.142;-0.974;2022-08-18T14:21:50;99971.13;;;25.81;48.25
51439;BME280;38816;51.142;-0.974;2022-08-18T14:24:36;99967.44;;;25.84;48.89
51439;BME280;38816;51.142;-0.974;2022-08-18T14:27:31;99974.94;;;25.74;50.75
51439;BME280;38816;51.142;-0.974;2022-08-18T14:30:02;99972.72;;;26.01;48.29
51439;BME280;38816;51.142;-0.974;2022-08-18T14:32:28;99960.94;;;26.41;46.62
51439;BME280;38816;51.142;-0.974;2022-08-18T14:34:58;99967.06;;;26.75;46.00
51439;BME280;38816;51.142;-0.974;2022-08-18T14:37:24;99960.84;;;27.08;46.17
51439;BME280;38816;51.142;-0.974;2022-08-18T14:39:50;99963.28;;;27.42;48.03
51439;BME280;38816;51.142;-0.974;2022-08-18T14:42:16;99948.47;;;27.24;46.14
51439;BME280;38816;51.142;-0.974;2022-08-18T14:44:46;99967.13;;;27.05;47.19
51439;BME280;38816;51.142;-0.974;2022-08-18T14:47:12;99968.03;;;26.57;45.60
51439;BME280;38816;51.142;-0.974;2022-08-18T14:49:38;99974.34;;;26.04;44.92
51439;BME280;38816;51.142;-0.974;2022-08-18T14:52:05;99972.28;;;25.39;45.07
51439;BME280;38816;51.142;-0.974;2022-08-18T14:54:31;99975.81;;;25.21;47.18
51439;BME280;38816;51.142;-0.974;2022-08-18T14:56:58;99974.31;;;24.96;46.94
51439;BME280;38816;51.142;-0.974;2022-08-18T14:59:26;99975.31;;;24.75;47.56
51439;BME280;38816;51.142;-0.974;2022-08-18T15:01:53;99968.66;;;24.68;49.47
51439;BME280;38816;51.142;-0.974;2022-08-18T15:04:18;99975.09;;;24.61;48.79
51439;BME280;38816;51.142;-0.974;2022-08-18T15:06:43;99982.16;;;24.60;48.31
51439;BME280;38816;51.142;-0.974;2022-08-18T15:09:09;99977.69;;;24.81;47.83
51439;BME280;38816;51.142;-0.974;2022-08-18T15:11:34;99975.25;;;25.14;48.49